EPKTEPKK

Guest
Details From EPKT - PYRZOWICE
To EPKK - BALICE
Flight Number -
Tags generated
Created
Modified
Stats Distance 37 nm / 68 km
Max Altitude 1,000 ft / 305 m
Waypoints 3
Social Downloads 0
Likes 0
Share VATSIM

Download

Looking for another format? Having issues loading an existing format? Contact us
Advertisement - Login to hide

Notes

Basic altitude profile: - Ascent Rate: 2500ft/min - Ascent Speed: 250kts - Cruise Altitude: 35000ft - Cruise Speed: 420kts - Descent Rate: 1500ft/min - Descent Speed: 250kts

Route

EPKT PT EPKK

ID Type Via Altitude Latitude Longitude Leg Dist Tot Dist Heading (true) Name
O EPKT APT - 0 ft / 0 m 50.47426˚ 19.07436˚ - 0 nm - PYRZOWICE
PT NDB - 1,000 ft / 305 m 50.47407˚ 19.15034˚ 2 nm 2 nm 90° / 90° -
O EPKK APT - 0 ft / 0 m 50.07782˚ 19.78550˚ 34 nm 36 nm 134° / 135° BALICE

Altitude Profile

Advertisement - Login to hide

EPKT

Details ICAO EPKT (KTW)
Name PYRZOWICE
Region Poland
Timezone Europe/Warsaw (UTC+1.0)
Stats Elevation 995 ft / 303 m (AMSL)
Location 50.474263° 19.074356°
Runways 1
Magnetic Variation 5.085° E

METAR

EPKT 151800Z 26010KT 9999 OVC037 04/M02 Q0999

Decode

TAF

TAF EPKT 151730Z 1518/1618 24012KT 9999 BKN033 BECMG 1518/1521 VRB02KT TEMPO 1522/1606 4000 BR BECMG 1605/1608 33010KT TEMPO 1608/1618 4000 SN BR BKN013 TEMPO 1610/1614 33015G25KT

Decode

Departure Runways

ID Width Length Bearing (true) Bearing (mag) Surface Threshold Offset Overrun Length
09 195 ft / 59 m 9,156 ft / 2,791 m 90.18° 85.09° Concrete 0 ft / 0 m 0 ft / 0 m
27 195 ft / 59 m 9,156 ft / 2,791 m 270.22° 265.13° Concrete 0 ft / 0 m 0 ft / 0 m

EPKK

Details ICAO EPKK (KRK)
Name BALICE
Region Poland
Timezone Europe/Warsaw (UTC+1.0)
Stats Elevation 791 ft / 241 m (AMSL)
Location 50.077821° 19.785503°
Runways 1
Magnetic Variation 5.202° E

METAR

EPKK 151800Z 23008KT 9999 FEW040 02/M02 Q1000

Decode

TAF

TAF EPKK 151730Z 1518/1618 24010KT 9999 BKN033 BECMG 1518/1521 VRB02KT TEMPO 1522/1607 4000 BR BECMG 1607/1610 26010KT TEMPO 1608/1618 4000 SN BR BKN013 TEMPO 1610/1614 28015G25KT

Decode

Destination Runways

ID Width Length Bearing (true) Bearing (mag) Surface Threshold Offset Overrun Length
07 197 ft / 60 m 8,343 ft / 2,543 m 77.75° 72.55° Concrete 0 ft / 0 m 0 ft / 0 m
25 197 ft / 60 m 8,343 ft / 2,543 m 257.77° 252.57° Concrete 784 ft / 239 m 0 ft / 0 m

Approach Navaids

Runway Type Ident Frequency Range Bearing (true) Bearing (mag) Slope Elevation
25 Localiser KRW 110.30 MHz 18 nm / 33 km 257.73° 252.53° - 791 ft / 241 m (AMSL)
25 Glidescope KRW 110.30 MHz 10 nm / 19 km 257.76° 252.56° 3.00° 791 ft / 241 m (AMSL)
25 DME KRW 110.30 MHz 18 nm / 33 km - - - 827 ft / 252 m (AMSL)

Popular Alternatives